Gretna, Virginia
Current Conditions -  °F | °C
As of 1:55 AM on Friday 19 Dec 2014 (Local Time) from K0V4 Reporting Station
Broken Clouds Broken Clouds  
Wind Chill: 31°   Ceiling: 10000
Heat Index: 31°   Visibility: 10mi
Dew Point: 29°   Wind: 3mph
Humidity: 92%   Direction: 250°WSW
Pressure: 30.1"   Gusts: NA
Location:  36.95°N, 79.36°W
Report Text: K0V4 190655Z AUTO 25003KT 10SM BKN100 00/M01 A3010 RMK AO1 T10031015
Loading
Personal Weather Stations






























Interactive Weather Map New forecast layout! Learn more

10-Day Weather Forecast

Advertisements
Track Severe Weather on mobile